DLH341 LIMF-EDDG
Flight info
| Callsign | DLH341 |
|---|---|
| Flight time | 1h 19m |
| Altitude | 38000 |
| Route | GODRA DCT LOKTA N851 TEDGO DCT LOHRE Z850 SOGMI |
| Aircraft | A321/M-DE2E3FGIJ1LORVWXYZ/HB2 |
Departure
| Time | 2026-05-04 17:33 |
|---|---|
| Airport | Turin Airport (LIMF) |
Arrival
| Time | 2026-05-04 18:52 |
|---|---|
| Airport | Münster Osnabrück Airport (EDDG) |
| Time | Latitude | Longitude | Altitude | Speed | Heading |
|---|---|---|---|---|---|
| 2026-05-04 17:11 | 45.19493 | 7.64591 | 986 ft | 0 kts | 95° |
| 2026-05-04 17:29 | 45.19492 | 7.64598 | 993 ft | 4 kts | 95° |
| 2026-05-04 17:29 | 45.19295 | 7.64671 | 986 ft | 14 kts | 182° |
| 2026-05-04 17:30 | 45.18928 | 7.64647 | 992 ft | 21 kts | 182° |
| 2026-05-04 17:31 | 45.18663 | 7.64639 | 986 ft | 14 kts | 164° |
| 2026-05-04 17:31 | 45.18928 | 7.64889 | 981 ft | 68 kts | 2° |
| 2026-05-04 17:32 | 45.20782 | 7.64996 | 1430 ft | 162 kts | 358° |
| 2026-05-04 17:33 | 45.24236 | 7.65243 | 3667 ft | 173 kts | 3° |
| 2026-05-04 17:33 | 45.25458 | 7.65335 | 4282 ft | 178 kts | 2° |
| 2026-05-04 17:34 | 45.27302 | 7.69791 | 5702 ft | 236 kts | 107° |
| 2026-05-04 17:34 | 45.26784 | 7.72051 | 6483 ft | 244 kts | 107° |
| 2026-05-04 17:35 | 45.25270 | 7.79027 | 9108 ft | 250 kts | 110° |
| 2026-05-04 17:35 | 45.23468 | 7.83242 | 10678 ft | 252 kts | 130° |
| 2026-05-04 17:35 | 45.22440 | 7.85240 | 11565 ft | 252 kts | 130° |
| 2026-05-04 17:36 | 45.21371 | 7.87252 | 12157 ft | 262 kts | 130° |
| 2026-05-04 17:36 | 45.20302 | 7.89394 | 12824 ft | 269 kts | 130° |
| 2026-05-04 17:36 | 45.19017 | 7.91207 | 13771 ft | 253 kts | 152° |
| 2026-05-04 17:36 | 45.17382 | 7.92133 | 14280 ft | 257 kts | 176° |
| 2026-05-04 17:37 | 45.15598 | 7.92035 | 14797 ft | 259 kts | 197° |
| 2026-05-04 17:37 | 45.13978 | 7.90960 | 15429 ft | 259 kts | 218° |
| 2026-05-04 17:37 | 45.12805 | 7.89034 | 16082 ft | 263 kts | 243° |
| 2026-05-04 17:37 | 45.12389 | 7.86506 | 16762 ft | 269 kts | 266° |
| 2026-05-04 17:38 | 45.12655 | 7.83845 | 17328 ft | 283 kts | 285° |
| 2026-05-04 17:38 | 45.13751 | 7.81479 | 17906 ft | 298 kts | 309° |
| 2026-05-04 17:38 | 45.15235 | 7.79321 | 18292 ft | 310 kts | 308° |
| 2026-05-04 17:38 | 45.16708 | 7.77059 | 18822 ft | 314 kts | 308° |
| 2026-05-04 17:39 | 45.19653 | 7.72393 | 19943 ft | 321 kts | 307° |
| 2026-05-04 17:39 | 45.21138 | 7.70016 | 20520 ft | 324 kts | 307° |
| 2026-05-04 17:39 | 45.22643 | 7.67610 | 21107 ft | 326 kts | 307° |
| 2026-05-04 17:40 | 45.24158 | 7.65202 | 21647 ft | 330 kts | 308° |
| 2026-05-04 17:40 | 45.25881 | 7.63002 | 22184 ft | 338 kts | 320° |
| 2026-05-04 17:40 | 45.27923 | 7.61276 | 22715 ft | 346 kts | 332° |
| 2026-05-04 17:40 | 45.30212 | 7.60107 | 23047 ft | 353 kts | 343° |
| 2026-05-04 17:41 | 45.32644 | 7.59590 | 23113 ft | 357 kts | 355° |
| 2026-05-04 17:41 | 45.35140 | 7.59719 | 23114 ft | 359 kts | 2° |
| 2026-05-04 17:41 | 45.37636 | 7.59958 | 23113 ft | 360 kts | 1° |
| 2026-05-04 17:41 | 45.40132 | 7.60184 | 23114 ft | 359 kts | 1° |
| 2026-05-04 17:42 | 45.42628 | 7.60400 | 23113 ft | 360 kts | 1° |
| 2026-05-04 17:42 | 45.45124 | 7.60613 | 23118 ft | 360 kts | 1° |
| 2026-05-04 17:42 | 45.47642 | 7.60832 | 23199 ft | 368 kts | 1° |
| 2026-05-04 17:42 | 45.50251 | 7.61059 | 23342 ft | 384 kts | 1° |
| 2026-05-04 17:43 | 45.52974 | 7.61295 | 23485 ft | 399 kts | 1° |
| 2026-05-04 17:43 | 45.55789 | 7.61539 | 23623 ft | 412 kts | 1° |
| 2026-05-04 17:43 | 45.58695 | 7.61793 | 23794 ft | 423 kts | 1° |
| 2026-05-04 17:43 | 45.61653 | 7.62056 | 24121 ft | 428 kts | 1° |
| 2026-05-04 17:44 | 45.64637 | 7.62325 | 24533 ft | 431 kts | 2° |
| 2026-05-04 17:44 | 45.67643 | 7.62598 | 24947 ft | 434 kts | 1° |
| 2026-05-04 17:44 | 45.70664 | 7.62872 | 25383 ft | 437 kts | 1° |
| 2026-05-04 17:44 | 45.71777 | 7.62972 | 25529 ft | 438 kts | 1° |
| 2026-05-04 17:45 | 45.73475 | 7.63126 | 25693 ft | 439 kts | 2° |
| 2026-05-04 17:45 | 45.76534 | 7.63401 | 26037 ft | 443 kts | 1° |
| 2026-05-04 17:45 | 45.79622 | 7.63675 | 26439 ft | 446 kts | 1° |
| 2026-05-04 17:45 | 45.82730 | 7.63951 | 26847 ft | 449 kts | 1° |
| 2026-05-04 17:46 | 45.85854 | 7.64226 | 27239 ft | 451 kts | 2° |
| 2026-05-04 17:46 | 45.89005 | 7.64502 | 27623 ft | 454 kts | 1° |
| 2026-05-04 17:46 | 45.92166 | 7.64782 | 28036 ft | 457 kts | 1° |
| 2026-05-04 17:46 | 45.95349 | 7.65067 | 28406 ft | 460 kts | 1° |
| 2026-05-04 17:47 | 45.98547 | 7.65357 | 28811 ft | 462 kts | 2° |
| 2026-05-04 17:47 | 46.01767 | 7.65650 | 29125 ft | 465 kts | 1° |
| 2026-05-04 17:47 | 46.05014 | 7.65941 | 29511 ft | 467 kts | 1° |
| 2026-05-04 17:47 | 46.08291 | 7.66235 | 29892 ft | 470 kts | 2° |
| 2026-05-04 17:48 | 46.11568 | 7.66532 | 30091 ft | 472 kts | 2° |
| 2026-05-04 17:48 | 46.14838 | 7.66832 | 30111 ft | 472 kts | 2° |
| 2026-05-04 17:48 | 46.18123 | 7.67134 | 30338 ft | 474 kts | 2° |
| 2026-05-04 17:48 | 46.21423 | 7.67435 | 30684 ft | 475 kts | 1° |
| 2026-05-04 17:49 | 46.24728 | 7.67734 | 30996 ft | 476 kts | 1° |
| 2026-05-04 17:49 | 46.28042 | 7.68034 | 31307 ft | 478 kts | 1° |
| 2026-05-04 17:49 | 46.31364 | 7.68336 | 31606 ft | 479 kts | 1° |
| 2026-05-04 17:49 | 46.34699 | 7.68639 | 31916 ft | 481 kts | 1° |
| 2026-05-04 17:50 | 46.37990 | 7.68942 | 32281 ft | 480 kts | 1° |
| 2026-05-04 17:50 | 46.41320 | 7.69250 | 32691 ft | 479 kts | 1° |
| 2026-05-04 17:50 | 46.44641 | 7.69555 | 33125 ft | 477 kts | 0° |
| 2026-05-04 17:50 | 46.47981 | 7.69862 | 33549 ft | 475 kts | 0° |
| 2026-05-04 17:51 | 46.51235 | 7.70160 | 33988 ft | 473 kts | 0° |
| 2026-05-04 17:51 | 46.54513 | 7.70479 | 34357 ft | 473 kts | 2° |
| 2026-05-04 17:51 | 46.57759 | 7.71286 | 34674 ft | 475 kts | 12° |
| 2026-05-04 17:51 | 46.60908 | 7.72819 | 34979 ft | 478 kts | 21° |
| 2026-05-04 17:52 | 46.63896 | 7.75065 | 35296 ft | 479 kts | 30° |
| 2026-05-04 17:52 | 46.66730 | 7.77642 | 35601 ft | 479 kts | 30° |
| 2026-05-04 17:52 | 46.69511 | 7.80171 | 35895 ft | 478 kts | 30° |
| 2026-05-04 17:52 | 46.72329 | 7.82729 | 36226 ft | 477 kts | 30° |
| 2026-05-04 17:53 | 46.75146 | 7.85285 | 36439 ft | 476 kts | 30° |
| 2026-05-04 17:53 | 46.77948 | 7.87829 | 36068 ft | 473 kts | 30° |
| 2026-05-04 17:53 | 46.83482 | 7.92866 | 36035 ft | 467 kts | 30° |
| 2026-05-04 17:54 | 46.88979 | 7.97895 | 36021 ft | 466 kts | 30° |
| 2026-05-04 17:54 | 46.93592 | 8.02124 | 36014 ft | 466 kts | 30° |
| 2026-05-04 17:55 | 46.99961 | 8.07976 | 36005 ft | 466 kts | 30° |
| 2026-05-04 17:55 | 47.05442 | 8.13027 | 36025 ft | 466 kts | 30° |
| 2026-05-04 17:56 | 47.10926 | 8.18096 | 36038 ft | 466 kts | 31° |
| 2026-05-04 17:56 | 47.16415 | 8.23179 | 36045 ft | 466 kts | 31° |
| 2026-05-04 17:57 | 47.21900 | 8.28265 | 36035 ft | 467 kts | 31° |
| 2026-05-04 17:57 | 47.27389 | 8.33373 | 36042 ft | 466 kts | 31° |
| 2026-05-04 17:58 | 47.32863 | 8.38474 | 36047 ft | 466 kts | 31° |
| 2026-05-04 17:58 | 47.38334 | 8.43590 | 36049 ft | 465 kts | 31° |
| 2026-05-04 17:59 | 47.43769 | 8.48690 | 36021 ft | 465 kts | 31° |
| 2026-05-04 18:00 | 47.51963 | 8.56384 | 36023 ft | 464 kts | 31° |
| 2026-05-04 18:00 | 47.57205 | 8.61327 | 36024 ft | 464 kts | 32° |
| 2026-05-04 18:01 | 47.61721 | 8.65611 | 36031 ft | 464 kts | 32° |
| 2026-05-04 18:01 | 47.68005 | 8.71570 | 36031 ft | 464 kts | 32° |
| 2026-05-04 18:02 | 47.75752 | 8.78915 | 36032 ft | 464 kts | 32° |
| 2026-05-04 18:02 | 47.81194 | 8.83912 | 36026 ft | 463 kts | 29° |
| 2026-05-04 18:03 | 47.86824 | 8.88506 | 36018 ft | 463 kts | 27° |
| 2026-05-04 18:03 | 47.92438 | 8.92955 | 36008 ft | 463 kts | 27° |
| 2026-05-04 18:04 | 47.98082 | 8.97553 | 36018 ft | 462 kts | 28° |
| 2026-05-04 18:05 | 48.06519 | 9.04465 | 36021 ft | 460 kts | 21° |
| 2026-05-04 18:05 | 48.09551 | 9.05816 | 36028 ft | 456 kts | 7° |
| 2026-05-04 18:05 | 48.12700 | 9.06531 | 36022 ft | 456 kts | 6° |
| 2026-05-04 18:06 | 48.21104 | 9.08267 | 36017 ft | 456 kts | 6° |
| 2026-05-04 18:06 | 48.28412 | 9.09757 | 36016 ft | 456 kts | 6° |
| 2026-05-04 18:07 | 48.34690 | 9.11082 | 36011 ft | 457 kts | 6° |
| 2026-05-04 18:07 | 48.40990 | 9.12422 | 36009 ft | 457 kts | 6° |
| 2026-05-04 18:08 | 48.47296 | 9.13761 | 36000 ft | 458 kts | 6° |
| 2026-05-04 18:08 | 48.53602 | 9.15095 | 35989 ft | 458 kts | 6° |
| 2026-05-04 18:09 | 48.66207 | 9.17779 | 35996 ft | 458 kts | 6° |
| 2026-05-04 18:10 | 48.72505 | 9.19125 | 35994 ft | 458 kts | 6° |
| 2026-05-04 18:10 | 48.78854 | 9.20487 | 35992 ft | 458 kts | 6° |
| 2026-05-04 18:11 | 48.85168 | 9.21849 | 36013 ft | 458 kts | 6° |
| 2026-05-04 18:11 | 48.91484 | 9.23203 | 36004 ft | 459 kts | 6° |
| 2026-05-04 18:12 | 48.96737 | 9.24330 | 36010 ft | 459 kts | 6° |
| 2026-05-04 18:12 | 49.03046 | 9.25696 | 36010 ft | 459 kts | 6° |
| 2026-05-04 18:13 | 49.09374 | 9.27074 | 36005 ft | 459 kts | 6° |
| 2026-05-04 18:14 | 49.18745 | 9.29105 | 36006 ft | 459 kts | 6° |
| 2026-05-04 18:14 | 49.25079 | 9.30490 | 36000 ft | 459 kts | 6° |
| 2026-05-04 18:15 | 49.37685 | 9.33263 | 36011 ft | 460 kts | 6° |
| 2026-05-04 18:16 | 49.44021 | 9.34658 | 36008 ft | 460 kts | 6° |
| 2026-05-04 18:16 | 49.50347 | 9.36047 | 36005 ft | 460 kts | 5° |
| 2026-05-04 18:17 | 49.59838 | 9.38141 | 36005 ft | 459 kts | 5° |
| 2026-05-04 18:18 | 49.69333 | 9.40263 | 36005 ft | 459 kts | 5° |
| 2026-05-04 18:18 | 49.75653 | 9.41678 | 36003 ft | 459 kts | 5° |
| 2026-05-04 18:19 | 49.85133 | 9.43789 | 36008 ft | 459 kts | 5° |
| 2026-05-04 18:19 | 49.91456 | 9.45201 | 36006 ft | 459 kts | 5° |
| 2026-05-04 18:20 | 49.97776 | 9.46618 | 35998 ft | 459 kts | 5° |
| 2026-05-04 18:20 | 50.04027 | 9.46797 | 36007 ft | 451 kts | 347° |
| 2026-05-04 18:21 | 50.09931 | 9.43829 | 36005 ft | 439 kts | 327° |
| 2026-05-04 18:21 | 50.14799 | 9.38418 | 35991 ft | 431 kts | 316° |
| 2026-05-04 18:22 | 50.19454 | 9.32506 | 35992 ft | 431 kts | 316° |
| 2026-05-04 18:22 | 50.24146 | 9.26654 | 35988 ft | 434 kts | 322° |
| 2026-05-04 18:23 | 50.29351 | 9.21762 | 36016 ft | 437 kts | 324° |
| 2026-05-04 18:23 | 50.34586 | 9.16904 | 36003 ft | 438 kts | 324° |
| 2026-05-04 18:24 | 50.39826 | 9.12029 | 35998 ft | 438 kts | 324° |
| 2026-05-04 18:24 | 50.45057 | 9.07152 | 35994 ft | 438 kts | 324° |
| 2026-05-04 18:25 | 50.47674 | 9.04710 | 35820 ft | 438 kts | 324° |
| 2026-05-04 18:25 | 50.50290 | 9.02267 | 35563 ft | 437 kts | 324° |
| 2026-05-04 18:25 | 50.52903 | 8.99824 | 35311 ft | 437 kts | 324° |
| 2026-05-04 18:25 | 50.55505 | 8.97385 | 35073 ft | 436 kts | 324° |
| 2026-05-04 18:26 | 50.58105 | 8.94938 | 34822 ft | 435 kts | 324° |
| 2026-05-04 18:26 | 50.60699 | 8.92488 | 34580 ft | 435 kts | 323° |
| 2026-05-04 18:26 | 50.63282 | 8.90045 | 34268 ft | 431 kts | 323° |
| 2026-05-04 18:26 | 50.65839 | 8.87631 | 33757 ft | 428 kts | 323° |
| 2026-05-04 18:27 | 50.68375 | 8.85236 | 33224 ft | 424 kts | 323° |
| 2026-05-04 18:27 | 50.70920 | 8.82823 | 32436 ft | 426 kts | 323° |
| 2026-05-04 18:27 | 50.73466 | 8.80400 | 31684 ft | 428 kts | 323° |
| 2026-05-04 18:27 | 50.76022 | 8.77966 | 30942 ft | 429 kts | 323° |
| 2026-05-04 18:28 | 50.78580 | 8.75535 | 30281 ft | 429 kts | 323° |
| 2026-05-04 18:28 | 50.81104 | 8.73145 | 30034 ft | 417 kts | 323° |
| 2026-05-04 18:28 | 50.83561 | 8.70822 | 29830 ft | 407 kts | 323° |
| 2026-05-04 18:28 | 50.85991 | 8.68508 | 29141 ft | 408 kts | 323° |
| 2026-05-04 18:29 | 50.88414 | 8.66191 | 28493 ft | 406 kts | 323° |
| 2026-05-04 18:29 | 50.90825 | 8.63875 | 27835 ft | 405 kts | 323° |
| 2026-05-04 18:29 | 50.93228 | 8.61565 | 27214 ft | 403 kts | 324° |
| 2026-05-04 18:29 | 50.95598 | 8.59299 | 26994 ft | 392 kts | 324° |
| 2026-05-04 18:30 | 51.00219 | 8.54871 | 26991 ft | 387 kts | 323° |
| 2026-05-04 18:30 | 51.02491 | 8.52678 | 27023 ft | 387 kts | 323° |
| 2026-05-04 18:30 | 51.04818 | 8.50426 | 26983 ft | 386 kts | 323° |
| 2026-05-04 18:31 | 51.07149 | 8.48175 | 26987 ft | 387 kts | 323° |
| 2026-05-04 18:31 | 51.09414 | 8.45987 | 26977 ft | 386 kts | 323° |
| 2026-05-04 18:31 | 51.11712 | 8.43765 | 26264 ft | 391 kts | 323° |
| 2026-05-04 18:31 | 51.14066 | 8.41480 | 25368 ft | 399 kts | 324° |
| 2026-05-04 18:32 | 51.16435 | 8.39185 | 24726 ft | 398 kts | 324° |
| 2026-05-04 18:32 | 51.18798 | 8.36895 | 24175 ft | 396 kts | 324° |
| 2026-05-04 18:32 | 51.21142 | 8.34620 | 23646 ft | 394 kts | 325° |
| 2026-05-04 18:32 | 51.23451 | 8.32377 | 23084 ft | 382 kts | 325° |
| 2026-05-04 18:33 | 51.25636 | 8.30263 | 22646 ft | 362 kts | 325° |
| 2026-05-04 18:33 | 51.27766 | 8.28206 | 22231 ft | 344 kts | 324° |
| 2026-05-04 18:33 | 51.29765 | 8.26271 | 21823 ft | 329 kts | 324° |
| 2026-05-04 18:33 | 51.31714 | 8.24369 | 21436 ft | 330 kts | 324° |
| 2026-05-04 18:34 | 51.33695 | 8.22422 | 21040 ft | 331 kts | 324° |
| 2026-05-04 18:34 | 51.35625 | 8.20525 | 20638 ft | 329 kts | 324° |
| 2026-05-04 18:34 | 51.37548 | 8.18635 | 20245 ft | 328 kts | 324° |
| 2026-05-04 18:34 | 51.39522 | 8.16689 | 19996 ft | 338 kts | 324° |
| 2026-05-04 18:35 | 51.41513 | 8.14722 | 19985 ft | 340 kts | 325° |
| 2026-05-04 18:35 | 51.43531 | 8.12734 | 19969 ft | 342 kts | 325° |
| 2026-05-04 18:35 | 51.45575 | 8.10723 | 19289 ft | 350 kts | 325° |
| 2026-05-04 18:35 | 51.47631 | 8.08703 | 19003 ft | 342 kts | 325° |
| 2026-05-04 18:36 | 51.49639 | 8.06735 | 18462 ft | 334 kts | 325° |
| 2026-05-04 18:36 | 51.51642 | 8.04762 | 17196 ft | 344 kts | 325° |
| 2026-05-04 18:36 | 51.53683 | 8.02745 | 16754 ft | 342 kts | 326° |
| 2026-05-04 18:36 | 51.55713 | 8.00740 | 16484 ft | 337 kts | 326° |
| 2026-05-04 18:37 | 51.57665 | 7.98814 | 15778 ft | 325 kts | 326° |
| 2026-05-04 18:37 | 51.59571 | 7.96924 | 14926 ft | 320 kts | 326° |
| 2026-05-04 18:37 | 51.61451 | 7.95055 | 14114 ft | 315 kts | 326° |
| 2026-05-04 18:37 | 51.63298 | 7.93216 | 13273 ft | 310 kts | 326° |
| 2026-05-04 18:38 | 51.65124 | 7.91399 | 12438 ft | 305 kts | 326° |
| 2026-05-04 18:38 | 51.66920 | 7.89610 | 11965 ft | 304 kts | 326° |
| 2026-05-04 18:38 | 51.68706 | 7.87830 | 11584 ft | 299 kts | 326° |
| 2026-05-04 18:38 | 51.70480 | 7.86058 | 11211 ft | 299 kts | 326° |
| 2026-05-04 18:39 | 51.72231 | 7.84310 | 10603 ft | 294 kts | 326° |
| 2026-05-04 18:39 | 51.73958 | 7.82587 | 10119 ft | 290 kts | 326° |
| 2026-05-04 18:39 | 51.75682 | 7.80866 | 9978 ft | 292 kts | 327° |
| 2026-05-04 18:39 | 51.77563 | 7.79618 | 9981 ft | 297 kts | 348° |
| 2026-05-04 18:40 | 51.79580 | 7.79605 | 9980 ft | 296 kts | 12° |
| 2026-05-04 18:40 | 51.81475 | 7.80844 | 9979 ft | 295 kts | 29° |
| 2026-05-04 18:40 | 51.83273 | 7.82454 | 9979 ft | 295 kts | 29° |
| 2026-05-04 18:40 | 51.85064 | 7.84065 | 9725 ft | 293 kts | 29° |
| 2026-05-04 18:41 | 51.86838 | 7.85660 | 9302 ft | 291 kts | 29° |
| 2026-05-04 18:41 | 51.88602 | 7.87251 | 8880 ft | 290 kts | 29° |
| 2026-05-04 18:41 | 51.90358 | 7.88833 | 8473 ft | 288 kts | 29° |
| 2026-05-04 18:41 | 51.92105 | 7.90406 | 8066 ft | 286 kts | 29° |
| 2026-05-04 18:42 | 51.93841 | 7.91967 | 7664 ft | 285 kts | 29° |
| 2026-05-04 18:42 | 51.95567 | 7.93520 | 7276 ft | 283 kts | 29° |
| 2026-05-04 18:42 | 51.97286 | 7.95074 | 6890 ft | 282 kts | 29° |
| 2026-05-04 18:42 | 51.98985 | 7.96609 | 6617 ft | 274 kts | 29° |
| 2026-05-04 18:43 | 52.00612 | 7.98077 | 6344 ft | 264 kts | 29° |
| 2026-05-04 18:43 | 52.02209 | 7.99520 | 6035 ft | 262 kts | 29° |
| 2026-05-04 18:43 | 52.03797 | 8.00958 | 5726 ft | 261 kts | 29° |
| 2026-05-04 18:43 | 52.05381 | 8.02394 | 5606 ft | 260 kts | 29° |
| 2026-05-04 18:44 | 52.06959 | 8.03821 | 5414 ft | 259 kts | 28° |
| 2026-05-04 18:44 | 52.07999 | 8.04760 | 5293 ft | 257 kts | 28° |
| 2026-05-04 18:44 | 52.10075 | 8.06640 | 5129 ft | 249 kts | 28° |
| 2026-05-04 18:44 | 52.11588 | 8.07696 | 5022 ft | 232 kts | 13° |
| 2026-05-04 18:45 | 52.13101 | 8.07942 | 4964 ft | 210 kts | 355° |
| 2026-05-04 18:45 | 52.14505 | 8.07514 | 4755 ft | 203 kts | 339° |
| 2026-05-04 18:45 | 52.15828 | 8.06775 | 4553 ft | 198 kts | 339° |
| 2026-05-04 18:45 | 52.17125 | 8.06061 | 4368 ft | 197 kts | 339° |
| 2026-05-04 18:46 | 52.18329 | 8.05068 | 4294 ft | 193 kts | 321° |
| 2026-05-04 18:46 | 52.19240 | 8.03498 | 4209 ft | 190 kts | 301° |
| 2026-05-04 18:46 | 52.19765 | 8.01553 | 4080 ft | 188 kts | 282° |
| 2026-05-04 18:46 | 52.19855 | 7.99455 | 3899 ft | 185 kts | 262° |
| 2026-05-04 18:47 | 52.19526 | 7.97435 | 3670 ft | 184 kts | 250° |
| 2026-05-04 18:47 | 52.19115 | 7.95462 | 3436 ft | 184 kts | 250° |
| 2026-05-04 18:47 | 52.18704 | 7.93484 | 3199 ft | 184 kts | 250° |
| 2026-05-04 18:47 | 52.18301 | 7.91545 | 2949 ft | 174 kts | 250° |
| 2026-05-04 18:48 | 52.17934 | 7.89787 | 2739 ft | 155 kts | 249° |
| 2026-05-04 18:48 | 52.17604 | 7.88203 | 2531 ft | 143 kts | 250° |
| 2026-05-04 18:48 | 52.17290 | 7.86701 | 2345 ft | 138 kts | 250° |
| 2026-05-04 18:48 | 52.16981 | 7.85224 | 2160 ft | 137 kts | 249° |
| 2026-05-04 18:49 | 52.16674 | 7.83762 | 1985 ft | 136 kts | 249° |
| 2026-05-04 18:49 | 52.16369 | 7.82306 | 1800 ft | 135 kts | 249° |
| 2026-05-04 18:49 | 52.16067 | 7.80853 | 1623 ft | 135 kts | 249° |
| 2026-05-04 18:49 | 52.15760 | 7.79410 | 1418 ft | 135 kts | 248° |
| 2026-05-04 18:50 | 52.15464 | 7.77970 | 1264 ft | 135 kts | 249° |
| 2026-05-04 18:50 | 52.15160 | 7.76529 | 1055 ft | 134 kts | 249° |
| 2026-05-04 18:50 | 52.14857 | 7.75086 | 901 ft | 135 kts | 250° |
| 2026-05-04 18:50 | 52.14552 | 7.73636 | 706 ft | 135 kts | 250° |
| 2026-05-04 18:51 | 52.14244 | 7.72192 | 533 ft | 135 kts | 251° |
| 2026-05-04 18:51 | 52.13940 | 7.70744 | 334 ft | 135 kts | 251° |
| 2026-05-04 18:51 | 52.13636 | 7.69305 | 172 ft | 129 kts | 251° |
| 2026-05-04 18:51 | 52.13421 | 7.68280 | 169 ft | 72 kts | 251° |
| 2026-05-04 18:52 | 52.13284 | 7.67628 | 166 ft | 53 kts | 251° |
| 2026-05-04 18:52 | 52.13193 | 7.67206 | 165 ft | 26 kts | 249° |
| 2026-05-04 18:52 | 52.13112 | 7.67051 | 167 ft | 16 kts | 176° |
| 2026-05-04 18:52 | 52.13047 | 7.67116 | 168 ft | 11 kts | 137° |
| 2026-05-04 18:53 | 52.13027 | 7.67249 | 168 ft | 14 kts | 72° |
| 2026-05-04 18:53 | 52.13062 | 7.67412 | 168 ft | 17 kts | 71° |
| 2026-05-04 18:53 | 52.13103 | 7.67607 | 168 ft | 20 kts | 71° |
| 2026-05-04 18:53 | 52.13153 | 7.67829 | 168 ft | 22 kts | 70° |
| 2026-05-04 18:54 | 52.13180 | 7.67963 | 168 ft | 10 kts | 71° |
| 2026-05-04 18:54 | 52.13206 | 7.68090 | 168 ft | 13 kts | 71° |
| 2026-05-04 18:54 | 52.13237 | 7.68237 | 168 ft | 13 kts | 70° |
| 2026-05-04 18:54 | 52.13269 | 7.68374 | 168 ft | 14 kts | 69° |
| 2026-05-04 18:55 | 52.13300 | 7.68531 | 168 ft | 15 kts | 72° |
| 2026-05-04 18:55 | 52.13338 | 7.68849 | 168 ft | 10 kts | 142° |
| 2026-05-04 18:55 | 52.13263 | 7.68897 | 168 ft | 14 kts | 159° |
| 2026-05-04 18:56 | 52.13165 | 7.68960 | 168 ft | 15 kts | 137° |
| 2026-05-04 18:56 | 52.13176 | 7.69064 | 168 ft | 10 kts | 61° |
| 2026-05-04 18:56 | 52.13201 | 7.69188 | 168 ft | 11 kts | 71° |
| 2026-05-04 18:56 | 52.13186 | 7.69228 | 168 ft | 5 kts | 167° |
| 2026-05-04 18:57 | 52.13156 | 7.69222 | 168 ft | 6 kts | 197° |
| 2026-05-04 18:57 | 52.13135 | 7.69211 | 168 ft | 0 kts | 198° |